Terminal Aerodrome Forecast
Issued by NWS Mt. Holly, NJ

Home | Current Version | Previous Version | Text Only | Print | Product List | Glossary On
Versions: 1 2 3 4 5 6 7 8 9 10 11 12 13 14 15 16 17 18 19 20
649
FTUS41 KPHI 231737
TAFACY
TAF
KACY 231737Z 2318/2418 30008KT P6SM SCT250
     FM232100 27006KT P6SM SKC
     FM240100 VRB02KT P6SM SKC
      TEMPO 2405/2408 SCT100=

USA.gov is the U.S. government's official web portal to all federal, state and local government web resources and services.